sensor_id;sensor_type;location;lat;lon;timestamp;pressure;altitude;pressure_sealevel;temperature;humidity
51849;BME280;38952;51.090;-1.832;2023-02-19T00:01:47;101196.91;;;7.76;98.78
51849;BME280;38952;51.090;-1.832;2023-02-19T00:04:18;101196.63;;;7.66;98.78
51849;BME280;38952;51.090;-1.832;2023-02-19T00:06:52;101185.91;;;7.53;98.97
51849;BME280;38952;51.090;-1.832;2023-02-19T00:09:18;101188.84;;;7.51;98.93
51849;BME280;38952;51.090;-1.832;2023-02-19T00:11:44;101193.31;;;7.45;99.26
51849;BME280;38952;51.090;-1.832;2023-02-19T00:14:16;101198.16;;;7.43;99.13
51849;BME280;38952;51.090;-1.832;2023-02-19T00:16:49;101199.47;;;7.34;99.46
51849;BME280;38952;51.090;-1.832;2023-02-19T00:19:47;101202.53;;;7.26;99.07
51849;BME280;38952;51.090;-1.832;2023-02-19T00:22:22;101235.03;;;7.39;100.00
51849;BME280;38952;51.090;-1.832;2023-02-19T00:24:48;101220.03;;;7.30;99.42
51849;BME280;38952;51.090;-1.832;2023-02-19T00:27:26;101226.69;;;7.34;99.27
51849;BME280;38952;51.090;-1.832;2023-02-19T00:29:51;101227.09;;;7.38;99.09
51849;BME280;38952;51.090;-1.832;2023-02-19T00:32:18;101235.84;;;7.40;98.78
51849;BME280;38952;51.090;-1.832;2023-02-19T00:34:43;101229.63;;;7.32;98.48
51849;BME280;38952;51.090;-1.832;2023-02-19T00:37:09;101229.59;;;7.39;98.78
51849;BME280;38952;51.090;-1.832;2023-02-19T00:39:34;101232.13;;;7.34;98.35
51849;BME280;38952;51.090;-1.832;2023-02-19T00:42:00;101240.31;;;7.34;98.47
51849;BME280;38952;51.090;-1.832;2023-02-19T00:44:26;101211.41;;;7.14;98.46
51849;BME280;38952;51.090;-1.832;2023-02-19T00:46:51;101219.13;;;7.18;98.41
51849;BME280;38952;51.090;-1.832;2023-02-19T00:49:20;101223.13;;;7.15;97.90
51849;BME280;38952;51.090;-1.832;2023-02-19T00:51:45;101242.69;;;7.24;98.10
51849;BME280;38952;51.090;-1.832;2023-02-19T00:54:11;101237.56;;;7.15;98.48
51849;BME280;38952;51.090;-1.832;2023-02-19T00:56:37;101246.16;;;7.12;98.10
51849;BME280;38952;51.090;-1.832;2023-02-19T00:59:03;101249.72;;;7.13;97.67
51849;BME280;38952;51.090;-1.832;2023-02-19T01:01:28;101250.81;;;7.05;97.79
51849;BME280;38952;51.090;-1.832;2023-02-19T01:03:54;101262.75;;;7.04;98.25
51849;BME280;38952;51.090;-1.832;2023-02-19T01:06:20;101275.13;;;7.00;97.74
51849;BME280;38952;51.090;-1.832;2023-02-19T01:08:46;101261.75;;;6.98;97.72
51849;BME280;38952;51.090;-1.832;2023-02-19T01:11:12;101258.22;;;6.98;97.36
51849;BME280;38952;51.090;-1.832;2023-02-19T01:13:38;101248.38;;;6.97;97.06
51849;BME280;38952;51.090;-1.832;2023-02-19T01:16:08;101259.72;;;6.94;96.78
51849;BME280;38952;51.090;-1.832;2023-02-19T01:18:35;101249.69;;;6.88;97.28
51849;BME280;38952;51.090;-1.832;2023-02-19T01:21:05;101264.81;;;6.84;97.01
51849;BME280;38952;51.090;-1.832;2023-02-19T01:23:31;101262.34;;;6.75;97.36
51849;BME280;38952;51.090;-1.832;2023-02-19T01:25:57;101264.91;;;6.70;96.60
51849;BME280;38952;51.090;-1.832;2023-02-19T01:28:22;101257.16;;;6.67;97.43
51849;BME280;38952;51.090;-1.832;2023-02-19T01:30:48;101264.25;;;6.75;97.55
51849;BME280;38952;51.090;-1.832;2023-02-19T01:33:13;101267.34;;;6.78;97.63
51849;BME280;38952;51.090;-1.832;2023-02-19T01:35:39;101255.88;;;6.76;97.32
51849;BME280;38952;51.090;-1.832;2023-02-19T01:38:05;101270.69;;;6.80;97.14
51849;BME280;38952;51.090;-1.832;2023-02-19T01:40:33;101254.78;;;6.77;96.67
51849;BME280;38952;51.090;-1.832;2023-02-19T01:43:00;101261.13;;;6.71;97.12
51849;BME280;38952;51.090;-1.832;2023-02-19T01:45:42;101264.06;;;6.70;97.65
51849;BME280;38952;51.090;-1.832;2023-02-19T01:48:12;101273.88;;;6.71;98.40
51849;BME280;38952;51.090;-1.832;2023-02-19T01:50:49;101273.66;;;6.72;98.40
51849;BME280;38952;51.090;-1.832;2023-02-19T01:53:19;101274.44;;;6.79;98.69
51849;BME280;38952;51.090;-1.832;2023-02-19T01:55:47;101271.50;;;6.81;99.54
51849;BME280;38952;51.090;-1.832;2023-02-19T01:58:15;101279.88;;;6.79;99.60
51849;BME280;38952;51.090;-1.832;2023-02-19T02:00:40;101289.09;;;6.78;99.96
51849;BME280;38952;51.090;-1.832;2023-02-19T02:03:06;101289.53;;;6.75;100.00
51849;BME280;38952;51.090;-1.832;2023-02-19T02:05:53;101287.41;;;6.77;100.00
51849;BME280;38952;51.090;-1.832;2023-02-19T02:08:20;101293.28;;;6.74;100.00
51849;BME280;38952;51.090;-1.832;2023-02-19T02:11:04;101302.53;;;6.73;100.00
51849;BME280;38952;51.090;-1.832;2023-02-19T02:13:32;101295.06;;;6.62;100.00
51849;BME280;38952;51.090;-1.832;2023-02-19T02:16:13;101295.06;;;6.62;100.00
51849;BME280;38952;51.090;-1.832;2023-02-19T02:18:57;101305.88;;;6.69;100.00
51849;BME280;38952;51.090;-1.832;2023-02-19T02:27:48;101295.31;;;6.86;100.00
51849;BME280;38952;51.090;-1.832;2023-02-19T02:32:34;101293.84;;;6.90;100.00
51849;BME280;38952;51.090;-1.832;2023-02-19T02:35:09;101293.19;;;6.88;99.53
51849;BME280;38952;51.090;-1.832;2023-02-19T02:37:37;101304.97;;;6.81;99.74
51849;BME280;38952;51.090;-1.832;2023-02-19T02:40:06;101311.50;;;6.74;100.00
51849;BME280;38952;51.090;-1.832;2023-02-19T02:42:33;101303.22;;;6.62;100.00
51849;BME280;38952;51.090;-1.832;2023-02-19T02:45:29;101304.34;;;6.47;100.00
51849;BME280;38952;51.090;-1.832;2023-02-19T02:53:40;101292.81;;;6.14;100.00
51849;BME280;38952;51.090;-1.832;2023-02-19T02:56:28;101302.41;;;6.09;100.00
51849;BME280;38952;51.090;-1.832;2023-02-19T02:58:55;101300.75;;;6.08;100.00
51849;BME280;38952;51.090;-1.832;2023-02-19T03:01:26;101314.97;;;6.10;100.00
51849;BME280;38952;51.090;-1.832;2023-02-19T03:04:17;101302.22;;;6.04;100.00
51849;BME280;38952;51.090;-1.832;2023-02-19T03:06:46;101306.81;;;5.97;100.00
51849;BME280;38952;51.090;-1.832;2023-02-19T03:11:41;101295.16;;;5.90;100.00
51849;BME280;38952;51.090;-1.832;2023-02-19T03:14:50;101301.19;;;5.92;100.00
51849;BME280;38952;51.090;-1.832;2023-02-19T03:17:44;101306.63;;;5.92;100.00
51849;BME280;38952;51.090;-1.832;2023-02-19T03:20:33;101325.84;;;5.90;100.00
51849;BME280;38952;51.090;-1.832;2023-02-19T03:23:01;101321.66;;;5.88;100.00
51849;BME280;38952;51.090;-1.832;2023-02-19T03:25:31;101304.13;;;5.84;100.00
51849;BME280;38952;51.090;-1.832;2023-02-19T03:28:20;101320.84;;;5.87;100.00
51849;BME280;38952;51.090;-1.832;2023-02-19T03:31:09;101322.91;;;5.85;100.00
51849;BME280;38952;51.090;-1.832;2023-02-19T03:33:36;101317.31;;;5.73;100.00
51849;BME280;38952;51.090;-1.832;2023-02-19T03:36:07;101331.28;;;5.84;100.00
51849;BME280;38952;51.090;-1.832;2023-02-19T03:39:02;101345.47;;;5.86;100.00
51849;BME280;38952;51.090;-1.832;2023-02-19T03:46:53;101348.59;;;5.89;100.00
51849;BME280;38952;51.090;-1.832;2023-02-19T03:49:34;101339.63;;;5.89;100.00
51849;BME280;38952;51.090;-1.832;2023-02-19T03:55:02;101366.13;;;5.87;100.00
51849;BME280;38952;51.090;-1.832;2023-02-19T04:00:08;101372.81;;;5.91;100.00
51849;BME280;38952;51.090;-1.832;2023-02-19T04:05:25;101365.31;;;5.93;100.00
51849;BME280;38952;51.090;-1.832;2023-02-19T04:07:56;101356.75;;;5.96;100.00
51849;BME280;38952;51.090;-1.832;2023-02-19T04:10:26;101357.78;;;5.95;100.00
51849;BME280;38952;51.090;-1.832;2023-02-19T04:12:59;101362.59;;;5.93;100.00
51849;BME280;38952;51.090;-1.832;2023-02-19T04:15:29;101365.53;;;5.91;100.00
51849;BME280;38952;51.090;-1.832;2023-02-19T04:18:03;101371.56;;;5.93;100.00
51849;BME280;38952;51.090;-1.832;2023-02-19T04:20:35;101378.03;;;5.92;100.00
51849;BME280;38952;51.090;-1.832;2023-02-19T04:23:03;101383.88;;;5.89;100.00
51849;BME280;38952;51.090;-1.832;2023-02-19T04:25:29;101395.19;;;5.93;100.00
51849;BME280;38952;51.090;-1.832;2023-02-19T04:27:57;101392.66;;;5.91;100.00
51849;BME280;38952;51.090;-1.832;2023-02-19T04:30:23;101390.56;;;5.87;100.00
51849;BME280;38952;51.090;-1.832;2023-02-19T04:32:48;101397.69;;;5.88;100.00
51849;BME280;38952;51.090;-1.832;2023-02-19T04:35:14;101404.56;;;5.90;100.00
51849;BME280;38952;51.090;-1.832;2023-02-19T04:37:39;101406.03;;;5.86;100.00
51849;BME280;38952;51.090;-1.832;2023-02-19T04:40:05;101406.25;;;5.85;99.87
51849;BME280;38952;51.090;-1.832;2023-02-19T04:42:30;101394.78;;;5.83;100.00
51849;BME280;38952;51.090;-1.832;2023-02-19T04:44:56;101398.09;;;5.78;100.00
51849;BME280;38952;51.090;-1.832;2023-02-19T04:47:21;101401.00;;;5.76;100.00
51849;BME280;38952;51.090;-1.832;2023-02-19T04:49:46;101393.94;;;5.69;100.00
51849;BME280;38952;51.090;-1.832;2023-02-19T04:52:12;101406.88;;;5.73;100.00
51849;BME280;38952;51.090;-1.832;2023-02-19T04:54:37;101408.97;;;5.71;100.00
51849;BME280;38952;51.090;-1.832;2023-02-19T04:57:03;101416.47;;;5.69;100.00
51849;BME280;38952;51.090;-1.832;2023-02-19T04:59:29;101418.16;;;5.70;100.00
51849;BME280;38952;51.090;-1.832;2023-02-19T05:01:54;101421.50;;;5.72;100.00
51849;BME280;38952;51.090;-1.832;2023-02-19T05:04:21;101423.78;;;5.69;100.00
51849;BME280;38952;51.090;-1.832;2023-02-19T05:06:48;101415.25;;;5.65;100.00
51849;BME280;38952;51.090;-1.832;2023-02-19T05:09:13;101419.00;;;5.64;100.00
51849;BME280;38952;51.090;-1.832;2023-02-19T05:11:39;101433.59;;;5.70;100.00
51849;BME280;38952;51.090;-1.832;2023-02-19T05:14:04;101440.69;;;5.64;100.00
51849;BME280;38952;51.090;-1.832;2023-02-19T05:16:30;101442.78;;;5.55;100.00
51849;BME280;38952;51.090;-1.832;2023-02-19T05:18:57;101447.38;;;5.62;100.00
51849;BME280;38952;51.090;-1.832;2023-02-19T05:21:23;101441.97;;;5.55;100.00
51849;BME280;38952;51.090;-1.832;2023-02-19T05:23:52;101451.13;;;5.60;100.00
51849;BME280;38952;51.090;-1.832;2023-02-19T05:26:21;101431.91;;;5.49;100.00
51849;BME280;38952;51.090;-1.832;2023-02-19T05:28:50;101449.47;;;5.59;100.00
51849;BME280;38952;51.090;-1.832;2023-02-19T05:31:16;101449.88;;;5.56;100.00
51849;BME280;38952;51.090;-1.832;2023-02-19T05:33:42;101449.03;;;5.56;100.00
51849;BME280;38952;51.090;-1.832;2023-02-19T05:36:10;101459.28;;;5.54;100.00
51849;BME280;38952;51.090;-1.832;2023-02-19T05:38:37;101448.19;;;5.42;100.00
51849;BME280;38952;51.090;-1.832;2023-02-19T05:43:36;101457.41;;;5.48;100.00
51849;BME280;38952;51.090;-1.832;2023-02-19T05:46:02;101449.88;;;5.50;100.00
51849;BME280;38952;51.090;-1.832;2023-02-19T05:48:27;101421.91;;;5.42;100.00
51849;BME280;38952;51.090;-1.832;2023-02-19T05:51:02;101437.56;;;5.40;100.00
51849;BME280;38952;51.090;-1.832;2023-02-19T05:53:30;101449.63;;;5.45;100.00
51849;BME280;38952;51.090;-1.832;2023-02-19T05:55:56;101468.25;;;5.48;100.00
51849;BME280;38952;51.090;-1.832;2023-02-19T05:58:24;101451.53;;;5.37;100.00
51849;BME280;38952;51.090;-1.832;2023-02-19T06:00:50;101477.00;;;5.50;100.00
51849;BME280;38952;51.090;-1.832;2023-02-19T06:03:16;101466.56;;;5.47;100.00
51849;BME280;38952;51.090;-1.832;2023-02-19T06:05:41;101454.47;;;5.49;100.00
51849;BME280;38952;51.090;-1.832;2023-02-19T06:08:06;101455.28;;;5.50;100.00
51849;BME280;38952;51.090;-1.832;2023-02-19T06:10:33;101466.56;;;5.53;100.00
51849;BME280;38952;51.090;-1.832;2023-02-19T06:12:58;101469.47;;;5.52;100.00
51849;BME280;38952;51.090;-1.832;2023-02-19T06:15:24;101466.56;;;5.47;100.00
51849;BME280;38952;51.090;-1.832;2023-02-19T06:17:49;101470.31;;;5.46;100.00
51849;BME280;38952;51.090;-1.832;2023-02-19T06:20:15;101476.56;;;5.39;100.00
51849;BME280;38952;51.090;-1.832;2023-02-19T06:22:40;101476.78;;;5.38;100.00
51849;BME280;38952;51.090;-1.832;2023-02-19T06:25:06;101479.28;;;5.39;100.00
51849;BME280;38952;51.090;-1.832;2023-02-19T06:27:36;101472.81;;;5.40;100.00
51849;BME280;38952;51.090;-1.832;2023-02-19T06:30:01;101474.88;;;5.38;100.00
51849;BME280;38952;51.090;-1.832;2023-02-19T06:32:27;101494.94;;;5.37;100.00
51849;BME280;38952;51.090;-1.832;2023-02-19T06:34:52;101510.81;;;5.40;100.00
51849;BME280;38952;51.090;-1.832;2023-02-19T06:37:18;101509.53;;;5.36;100.00
51849;BME280;38952;51.090;-1.832;2023-02-19T06:39:43;101514.31;;;5.34;100.00
51849;BME280;38952;51.090;-1.832;2023-02-19T06:42:10;101503.88;;;5.31;100.00
51849;BME280;38952;51.090;-1.832;2023-02-19T06:44:36;101485.31;;;5.28;100.00
51849;BME280;38952;51.090;-1.832;2023-02-19T06:47:02;101496.59;;;5.32;100.00
51849;BME280;38952;51.090;-1.832;2023-02-19T06:49:28;101500.94;;;5.26;100.00
51849;BME280;38952;51.090;-1.832;2023-02-19T06:51:53;101510.78;;;5.27;100.00
51849;BME280;38952;51.090;-1.832;2023-02-19T06:54:19;101494.84;;;5.11;100.00
51849;BME280;38952;51.090;-1.832;2023-02-19T06:56:44;101515.53;;;5.25;100.00
51849;BME280;38952;51.090;-1.832;2023-02-19T06:59:12;101519.91;;;5.13;100.00
51849;BME280;38952;51.090;-1.832;2023-02-19T07:01:39;101527.56;;;5.02;100.00
51849;BME280;38952;51.090;-1.832;2023-02-19T07:04:05;101519.00;;;4.99;100.00
51849;BME280;38952;51.090;-1.832;2023-02-19T07:06:32;101528.59;;;5.01;100.00
51849;BME280;38952;51.090;-1.832;2023-02-19T07:08:58;101529.22;;;5.03;100.00
51849;BME280;38952;51.090;-1.832;2023-02-19T07:11:24;101521.09;;;4.97;100.00
51849;BME280;38952;51.090;-1.832;2023-02-19T07:13:54;101527.75;;;4.94;100.00
51849;BME280;38952;51.090;-1.832;2023-02-19T07:16:20;101546.91;;;4.93;100.00
51849;BME280;38952;51.090;-1.832;2023-02-19T07:18:46;101539.41;;;4.88;100.00
51849;BME280;38952;51.090;-1.832;2023-02-19T07:21:13;101536.03;;;4.86;100.00
51849;BME280;38952;51.090;-1.832;2023-02-19T07:23:40;101530.19;;;4.82;100.00
51849;BME280;38952;51.090;-1.832;2023-02-19T07:26:11;101533.72;;;4.83;100.00
51849;BME280;38952;51.090;-1.832;2023-02-19T07:28:37;101534.75;;;4.82;100.00
51849;BME280;38952;51.090;-1.832;2023-02-19T07:31:04;101536.84;;;4.80;100.00
51849;BME280;38952;51.090;-1.832;2023-02-19T07:33:29;101548.13;;;4.83;100.00
51849;BME280;38952;51.090;-1.832;2023-02-19T07:35:55;101556.53;;;4.95;100.00
51849;BME280;38952;51.090;-1.832;2023-02-19T07:38:22;101562.63;;;5.04;100.00
51849;BME280;38952;51.090;-1.832;2023-02-19T07:43:35;101570.31;;;5.55;100.00
51849;BME280;38952;51.090;-1.832;2023-02-19T07:46:06;101559.69;;;5.67;100.00
51849;BME280;38952;51.090;-1.832;2023-02-19T07:48:35;101571.00;;;5.91;100.00
51849;BME280;38952;51.090;-1.832;2023-02-19T07:51:03;101571.47;;;6.01;98.69
51849;BME280;38952;51.090;-1.832;2023-02-19T07:53:29;101541.41;;;6.29;97.22
51849;BME280;38952;51.090;-1.832;2023-02-19T07:56:06;101564.72;;;6.84;94.22
51849;BME280;38952;51.090;-1.832;2023-02-19T07:58:52;101545.06;;;6.69;91.91
51849;BME280;38952;51.090;-1.832;2023-02-19T08:01:20;101554.94;;;6.63;93.00
51849;BME280;38952;51.090;-1.832;2023-02-19T08:04:07;101538.63;;;6.50;92.86
51849;BME280;38952;51.090;-1.832;2023-02-19T08:07:01;101517.13;;;6.41;94.01
51849;BME280;38952;51.090;-1.832;2023-02-19T08:09:26;101545.53;;;6.59;93.27
51849;BME280;38952;51.090;-1.832;2023-02-19T08:12:10;101558.06;;;6.73;93.51
51849;BME280;38952;51.090;-1.832;2023-02-19T08:14:54;101578.91;;;6.93;92.84
51849;BME280;38952;51.090;-1.832;2023-02-19T08:17:20;101564.66;;;6.97;92.43
51849;BME280;38952;51.090;-1.832;2023-02-19T08:19:58;101573.41;;;7.13;91.48
51849;BME280;38952;51.090;-1.832;2023-02-19T08:22:29;101570.91;;;7.11;90.90
51849;BME280;38952;51.090;-1.832;2023-02-19T08:25:07;101552.09;;;7.10;90.54
51849;BME280;38952;51.090;-1.832;2023-02-19T08:27:52;101569.22;;;7.17;90.27
51849;BME280;38952;51.090;-1.832;2023-02-19T08:30:32;101574.38;;;7.32;89.73
51849;BME280;38952;51.090;-1.832;2023-02-19T08:33:09;101558.50;;;7.29;89.27
51849;BME280;38952;51.090;-1.832;2023-02-19T08:39:42;101577.22;;;7.82;88.51
51849;BME280;38952;51.090;-1.832;2023-02-19T08:42:37;101574.38;;;9.15;82.83
51849;BME280;38952;51.090;-1.832;2023-02-19T08:45:07;101602.28;;;9.96;77.08
51849;BME280;38952;51.090;-1.832;2023-02-19T08:47:46;101595.03;;;10.56;76.94
51849;BME280;38952;51.090;-1.832;2023-02-19T08:50:35;101635.03;;;13.22;68.08
51849;BME280;38952;51.090;-1.832;2023-02-19T08:53:08;101620.22;;;14.22;63.86
51849;BME280;38952;51.090;-1.832;2023-02-19T08:55:38;101631.28;;;14.97;57.98
51849;BME280;38952;51.090;-1.832;2023-02-19T08:58:07;101628.97;;;13.86;59.24
51849;BME280;38952;51.090;-1.832;2023-02-19T09:00:32;101598.44;;;13.16;62.37
51849;BME280;38952;51.090;-1.832;2023-02-19T09:02:58;101643.75;;;13.58;61.63
51849;BME280;38952;51.090;-1.832;2023-02-19T09:08:43;101619.91;;;11.83;65.14
51849;BME280;38952;51.090;-1.832;2023-02-19T09:11:11;101646.28;;;12.01;65.54
51849;BME280;38952;51.090;-1.832;2023-02-19T09:13:37;101641.44;;;12.37;65.39
51849;BME280;38952;51.090;-1.832;2023-02-19T09:16:03;101629.31;;;12.67;63.90
51849;BME280;38952;51.090;-1.832;2023-02-19T09:18:29;101625.56;;;12.73;63.51
51849;BME280;38952;51.090;-1.832;2023-02-19T09:20:58;101630.72;;;13.26;61.83
51849;BME280;38952;51.090;-1.832;2023-02-19T09:23:24;101639.59;;;13.77;60.49
51849;BME280;38952;51.090;-1.832;2023-02-19T09:25:56;101650.38;;;14.11;58.51
51849;BME280;38952;51.090;-1.832;2023-02-19T09:28:21;101657.72;;;14.01;58.08
51849;BME280;38952;51.090;-1.832;2023-02-19T09:30:47;101677.72;;;14.51;57.28
51849;BME280;38952;51.090;-1.832;2023-02-19T09:33:12;101689.28;;;15.23;55.51
51849;BME280;38952;51.090;-1.832;2023-02-19T09:35:40;101688.00;;;16.04;53.25
51849;BME280;38952;51.090;-1.832;2023-02-19T09:38:06;101681.69;;;16.19;52.48
51849;BME280;38952;51.090;-1.832;2023-02-19T09:40:35;101674.19;;;15.99;51.90
51849;BME280;38952;51.090;-1.832;2023-02-19T09:43:05;101682.25;;;16.31;52.24
51849;BME280;38952;51.090;-1.832;2023-02-19T09:45:33;101684.22;;;16.56;51.47
51849;BME280;38952;51.090;-1.832;2023-02-19T09:48:00;101690.28;;;16.84;49.98
51849;BME280;38952;51.090;-1.832;2023-02-19T09:50:32;101682.75;;;17.31;49.59
51849;BME280;38952;51.090;-1.832;2023-02-19T09:53:02;101677.69;;;18.14;48.29
51849;BME280;38952;51.090;-1.832;2023-02-19T09:55:35;101697.63;;;18.85;45.75
51849;BME280;38952;51.090;-1.832;2023-02-19T09:58:17;101687.41;;;20.07;43.00
51849;BME280;38952;51.090;-1.832;2023-02-19T10:01:09;101680.47;;;21.91;39.99
51849;BME280;38952;51.090;-1.832;2023-02-19T10:03:47;101697.28;;;24.55;36.73
51849;BME280;38952;51.090;-1.832;2023-02-19T10:06:23;101690.53;;;24.30;33.15
51849;BME280;38952;51.090;-1.832;2023-02-19T10:09:15;101685.00;;;22.24;34.97
51849;BME280;38952;51.090;-1.832;2023-02-19T10:11:54;101693.38;;;21.18;38.00
51849;BME280;38952;51.090;-1.832;2023-02-19T10:14:52;101675.13;;;21.81;37.64
51849;BME280;38952;51.090;-1.832;2023-02-19T10:17:34;101683.97;;;23.99;34.67
51849;BME280;38952;51.090;-1.832;2023-02-19T10:20:42;101673.44;;;23.39;32.92
51849;BME280;38952;51.090;-1.832;2023-02-19T10:26:20;101700.44;;;19.87;39.69
51849;BME280;38952;51.090;-1.832;2023-02-19T10:29:00;101682.19;;;22.01;37.81
51849;BME280;38952;51.090;-1.832;2023-02-19T10:31:48;101691.50;;;23.99;35.71
51849;BME280;38952;51.090;-1.832;2023-02-19T10:34:26;101700.19;;;25.71;32.26
51849;BME280;38952;51.090;-1.832;2023-02-19T10:37:12;101725.09;;;26.02;31.86
51849;BME280;38952;51.090;-1.832;2023-02-19T10:40:02;101716.13;;;28.04;30.25
51849;BME280;38952;51.090;-1.832;2023-02-19T10:42:48;101730.25;;;30.40;27.38
51849;BME280;38952;51.090;-1.832;2023-02-19T10:45:43;101721.28;;;31.66;24.95
51849;BME280;38952;51.090;-1.832;2023-02-19T10:48:23;101723.03;;;33.07;24.76
51849;BME280;38952;51.090;-1.832;2023-02-19T10:51:17;101713.59;;;32.88;22.67
51849;BME280;38952;51.090;-1.832;2023-02-19T11:06:37;101708.44;;;40.98;15.88
51849;BME280;38952;51.090;-1.832;2023-02-19T11:09:39;101695.09;;;41.54;15.00
51849;BME280;38952;51.090;-1.832;2023-02-19T11:12:56;101702.06;;;42.79;15.45
51849;BME280;38952;51.090;-1.832;2023-02-19T11:16:07;101692.19;;;43.63;14.32
51849;BME280;38952;51.090;-1.832;2023-02-19T11:22:02;101675.38;;;39.60;13.47
51849;BME280;38952;51.090;-1.832;2023-02-19T11:30:45;101650.25;;;39.48;13.02
51849;BME280;38952;51.090;-1.832;2023-02-19T11:33:23;101654.63;;;38.85;13.34
51849;BME280;38952;51.090;-1.832;2023-02-19T12:02:13;101674.41;;;40.47;12.98
51849;BME280;38952;51.090;-1.832;2023-02-19T12:05:14;101651.75;;;39.96;12.76
51849;BME280;38952;51.090;-1.832;2023-02-19T12:12:04;101646.78;;;39.36;13.12
51849;BME280;38952;51.090;-1.832;2023-02-19T12:38:00;101625.84;;;35.62;16.19
51849;BME280;38952;51.090;-1.832;2023-02-19T12:40:49;101620.19;;;35.44;16.34
51849;BME280;38952;51.090;-1.832;2023-02-19T12:43:23;101614.53;;;34.97;16.33
51849;BME280;38952;51.090;-1.832;2023-02-19T12:46:10;101605.97;;;35.37;16.62
51849;BME280;38952;51.090;-1.832;2023-02-19T12:48:47;101610.25;;;35.99;15.96
51849;BME280;38952;51.090;-1.832;2023-02-19T12:51:47;101609.84;;;36.67;15.61
51849;BME280;38952;51.090;-1.832;2023-02-19T12:54:33;101585.94;;;36.54;15.47
51849;BME280;38952;51.090;-1.832;2023-02-19T12:57:05;101590.13;;;35.46;15.88
51849;BME280;38952;51.090;-1.832;2023-02-19T13:02:46;101586.56;;;33.53;17.69
51849;BME280;38952;51.090;-1.832;2023-02-19T13:08:03;101584.28;;;32.66;18.41
51849;BME280;38952;51.090;-1.832;2023-02-19T13:12:59;101577.25;;;32.11;19.13
51849;BME280;38952;51.090;-1.832;2023-02-19T13:17:56;101564.91;;;32.68;18.48
51849;BME280;38952;51.090;-1.832;2023-02-19T13:20:43;101557.31;;;33.35;18.15
51849;BME280;38952;51.090;-1.832;2023-02-19T13:31:53;101557.59;;;34.03;16.53
51849;BME280;38952;51.090;-1.832;2023-02-19T13:37:10;101563.66;;;32.24;18.53
51849;BME280;38952;51.090;-1.832;2023-02-19T13:39:45;101559.19;;;32.64;18.88
51849;BME280;38952;51.090;-1.832;2023-02-19T13:42:35;101562.34;;;33.04;18.18
51849;BME280;38952;51.090;-1.832;2023-02-19T13:45:03;101550.94;;;33.56;18.16
51849;BME280;38952;51.090;-1.832;2023-02-19T13:47:59;101566.59;;;33.32;18.23
51849;BME280;38952;51.090;-1.832;2023-02-19T13:50:27;101561.94;;;33.02;18.66
51849;BME280;38952;51.090;-1.832;2023-02-19T13:53:00;101527.84;;;32.87;18.73
51849;BME280;38952;51.090;-1.832;2023-02-19T13:58:37;101547.88;;;33.97;18.04
51849;BME280;38952;51.090;-1.832;2023-02-19T14:01:09;101542.19;;;34.01;17.87
51849;BME280;38952;51.090;-1.832;2023-02-19T14:04:07;101513.91;;;34.30;18.40
51849;BME280;38952;51.090;-1.832;2023-02-19T14:09:47;101494.38;;;33.96;17.80
51849;BME280;38952;51.090;-1.832;2023-02-19T14:14:54;101515.28;;;32.40;18.84
51849;BME280;38952;51.090;-1.832;2023-02-19T14:30:51;101519.19;;;29.84;21.39
51849;BME280;38952;51.090;-1.832;2023-02-19T14:33:48;101501.63;;;29.51;21.13
51849;BME280;38952;51.090;-1.832;2023-02-19T14:39:15;101526.50;;;32.26;19.70
51849;BME280;38952;51.090;-1.832;2023-02-19T14:41:47;101524.03;;;32.24;19.09
51849;BME280;38952;51.090;-1.832;2023-02-19T14:44:25;101514.25;;;31.80;19.72
51849;BME280;38952;51.090;-1.832;2023-02-19T14:47:02;101515.97;;;31.55;19.90
51849;BME280;38952;51.090;-1.832;2023-02-19T14:49:51;101515.88;;;31.47;19.91
51849;BME280;38952;51.090;-1.832;2023-02-19T14:52:36;101510.69;;;31.23;20.50
51849;BME280;38952;51.090;-1.832;2023-02-19T14:57:43;101499.25;;;30.62;21.51
51849;BME280;38952;51.090;-1.832;2023-02-19T15:02:48;101495.00;;;29.83;22.25
51849;BME280;38952;51.090;-1.832;2023-02-19T15:06:23;101481.34;;;29.10;22.74
51849;BME280;38952;51.090;-1.832;2023-02-19T15:08:23;101473.03;;;28.30;23.64
51849;BME280;38952;51.090;-1.832;2023-02-19T15:11:17;101480.34;;;28.19;23.69
51849;BME280;38952;51.090;-1.832;2023-02-19T15:14:03;101471.56;;;27.76;24.43
51849;BME280;38952;51.090;-1.832;2023-02-19T15:16:33;101469.50;;;27.89;24.36
51849;BME280;38952;51.090;-1.832;2023-02-19T15:19:04;101482.25;;;28.15;24.54
51849;BME280;38952;51.090;-1.832;2023-02-19T15:21:32;101484.72;;;28.32;24.37
51849;BME280;38952;51.090;-1.832;2023-02-19T15:24:02;101474.28;;;28.65;24.44
51849;BME280;38952;51.090;-1.832;2023-02-19T15:26:36;101481.28;;;28.55;24.41
51849;BME280;38952;51.090;-1.832;2023-02-19T15:29:10;101482.59;;;28.93;23.71
51849;BME280;38952;51.090;-1.832;2023-02-19T15:31:52;101474.81;;;28.86;23.64
51849;BME280;38952;51.090;-1.832;2023-02-19T15:34:27;101459.78;;;28.63;24.08
51849;BME280;38952;51.090;-1.832;2023-02-19T15:37:02;101456.41;;;28.57;24.14
51849;BME280;38952;51.090;-1.832;2023-02-19T15:39:40;101458.97;;;28.30;24.71
51849;BME280;38952;51.090;-1.832;2023-02-19T15:42:25;101458.41;;;28.09;24.91
51849;BME280;38952;51.090;-1.832;2023-02-19T15:45:13;101424.50;;;27.04;25.89
51849;BME280;38952;51.090;-1.832;2023-02-19T15:48:06;101448.28;;;26.82;26.68
51849;BME280;38952;51.090;-1.832;2023-02-19T15:50:35;101447.81;;;26.55;26.49
51849;BME280;38952;51.090;-1.832;2023-02-19T15:53:16;101446.53;;;25.94;27.74
51849;BME280;38952;51.090;-1.832;2023-02-19T15:58:29;101443.28;;;24.96;28.96
51849;BME280;38952;51.090;-1.832;2023-02-19T16:01:05;101446.16;;;24.48;29.72
51849;BME280;38952;51.090;-1.832;2023-02-19T16:03:36;101449.16;;;24.43;30.45
51849;BME280;38952;51.090;-1.832;2023-02-19T16:06:12;101439.59;;;24.44;29.85
51849;BME280;38952;51.090;-1.832;2023-02-19T16:08:44;101446.66;;;23.85;30.58
51849;BME280;38952;51.090;-1.832;2023-02-19T16:19:59;101442.09;;;23.02;32.16